sensor_id;sensor_type;location;lat;lon;timestamp;pressure;altitude;pressure_sealevel;temperature;humidity
27685;BME280;46113;50.130;8.526;2023-02-18T00:01:00;99773.19;;;6.85;89.19
27685;BME280;46113;50.130;8.526;2023-02-18T00:03:28;99772.03;;;6.94;89.37
27685;BME280;46113;50.130;8.526;2023-02-18T00:05:55;99773.00;;;6.64;89.73
27685;BME280;46113;50.130;8.526;2023-02-18T00:08:21;99776.50;;;6.90;88.49
27685;BME280;46113;50.130;8.526;2023-02-18T00:10:48;99772.94;;;6.65;89.57
27685;BME280;46113;50.130;8.526;2023-02-18T00:13:15;99778.03;;;6.97;88.13
27685;BME280;46113;50.130;8.526;2023-02-18T00:15:41;99765.78;;;6.44;90.57
27685;BME280;46113;50.130;8.526;2023-02-18T00:18:08;99769.75;;;6.83;88.25
27685;BME280;46113;50.130;8.526;2023-02-18T00:20:37;99772.06;;;6.92;87.75
27685;BME280;46113;50.130;8.526;2023-02-18T00:23:04;99766.69;;;6.70;88.47
27685;BME280;46113;50.130;8.526;2023-02-18T00:25:31;99771.06;;;6.96;87.98
27685;BME280;46113;50.130;8.526;2023-02-18T00:27:57;99775.22;;;6.76;89.63
27685;BME280;46113;50.130;8.526;2023-02-18T00:30:24;99767.00;;;6.86;88.83
27685;BME280;46113;50.130;8.526;2023-02-18T00:32:54;99763.34;;;6.90;88.71
27685;BME280;46113;50.130;8.526;2023-02-18T00:35:20;99759.84;;;6.91;87.72
27685;BME280;46113;50.130;8.526;2023-02-18T00:37:50;99763.97;;;6.98;87.66
27685;BME280;46113;50.130;8.526;2023-02-18T00:40:18;99760.84;;;6.60;89.11
27685;BME280;46113;50.130;8.526;2023-02-18T00:42:45;99756.88;;;6.48;89.84
27685;BME280;46113;50.130;8.526;2023-02-18T00:45:12;99764.19;;;6.65;88.99
27685;BME280;46113;50.130;8.526;2023-02-18T00:47:39;99763.09;;;6.72;88.04
27685;BME280;46113;50.130;8.526;2023-02-18T00:50:06;99761.97;;;7.07;87.05
27685;BME280;46113;50.130;8.526;2023-02-18T00:52:33;99759.00;;;6.89;87.27
27685;BME280;46113;50.130;8.526;2023-02-18T00:55:00;99759.97;;;6.86;87.40
27685;BME280;46113;50.130;8.526;2023-02-18T00:57:26;99759.63;;;6.70;88.37
27685;BME280;46113;50.130;8.526;2023-02-18T00:59:53;99751.75;;;6.70;89.53
27685;BME280;46113;50.130;8.526;2023-02-18T01:02:19;99748.19;;;6.46;90.47
27685;BME280;46113;50.130;8.526;2023-02-18T01:04:46;99763.16;;;6.96;88.62
27685;BME280;46113;50.130;8.526;2023-02-18T01:07:12;99761.03;;;6.81;89.13
27685;BME280;46113;50.130;8.526;2023-02-18T01:09:39;99755.84;;;6.52;90.07
27685;BME280;46113;50.130;8.526;2023-02-18T01:12:06;99751.16;;;6.87;89.32
27685;BME280;46113;50.130;8.526;2023-02-18T01:14:32;99755.94;;;6.76;89.15
27685;BME280;46113;50.130;8.526;2023-02-18T01:16:59;99745.47;;;6.49;90.37
27685;BME280;46113;50.130;8.526;2023-02-18T01:19:26;99754.31;;;6.72;88.66
27685;BME280;46113;50.130;8.526;2023-02-18T01:21:52;99753.50;;;6.71;89.80
27685;BME280;46113;50.130;8.526;2023-02-18T01:24:19;99740.38;;;6.43;91.49
27685;BME280;46113;50.130;8.526;2023-02-18T01:26:45;99738.84;;;6.62;90.49
27685;BME280;46113;50.130;8.526;2023-02-18T01:29:13;99746.47;;;6.97;88.48
27685;BME280;46113;50.130;8.526;2023-02-18T01:31:40;99749.06;;;6.72;88.97
27685;BME280;46113;50.130;8.526;2023-02-18T01:34:07;99740.88;;;6.81;89.08
27685;BME280;46113;50.130;8.526;2023-02-18T01:36:33;99744.81;;;6.68;89.27
27685;BME280;46113;50.130;8.526;2023-02-18T01:39:00;99737.38;;;6.81;89.33
27685;BME280;46113;50.130;8.526;2023-02-18T01:41:27;99731.41;;;6.75;89.31
27685;BME280;46113;50.130;8.526;2023-02-18T01:44:16;99729.38;;;6.58;88.93
27685;BME280;46113;50.130;8.526;2023-02-18T01:46:44;99724.16;;;6.82;87.27
27685;BME280;46113;50.130;8.526;2023-02-18T01:49:14;99725.72;;;6.62;88.93
27685;BME280;46113;50.130;8.526;2023-02-18T01:51:46;99722.03;;;6.68;88.15
27685;BME280;46113;50.130;8.526;2023-02-18T01:54:18;99731.59;;;6.71;88.32
27685;BME280;46113;50.130;8.526;2023-02-18T01:56:50;99720.53;;;6.86;87.28
27685;BME280;46113;50.130;8.526;2023-02-18T01:59:22;99725.47;;;6.96;87.04
27685;BME280;46113;50.130;8.526;2023-02-18T02:01:51;99723.19;;;6.85;86.40
27685;BME280;46113;50.130;8.526;2023-02-18T02:04:19;99717.56;;;6.70;87.60
27685;BME280;46113;50.130;8.526;2023-02-18T02:06:46;99709.34;;;6.79;88.13
27685;BME280;46113;50.130;8.526;2023-02-18T02:09:15;99702.53;;;6.48;89.00
27685;BME280;46113;50.130;8.526;2023-02-18T02:11:59;99698.03;;;6.52;88.02
27685;BME280;46113;50.130;8.526;2023-02-18T02:17:07;99688.63;;;6.45;88.62
27685;BME280;46113;50.130;8.526;2023-02-18T02:25:29;99695.06;;;6.36;89.27
27685;BME280;46113;50.130;8.526;2023-02-18T02:42:25;99693.38;;;6.60;87.56
27685;BME280;46113;50.130;8.526;2023-02-18T02:45:27;99684.97;;;6.50;87.57
27685;BME280;46113;50.130;8.526;2023-02-18T02:50:55;99689.75;;;6.37;87.17
27685;BME280;46113;50.130;8.526;2023-02-18T02:53:30;99691.63;;;6.34;88.09
27685;BME280;46113;50.130;8.526;2023-02-18T02:55:59;99699.09;;;6.72;86.06
27685;BME280;46113;50.130;8.526;2023-02-18T02:58:27;99695.72;;;6.16;88.82
27685;BME280;46113;50.130;8.526;2023-02-18T03:06:42;99684.34;;;6.68;86.94
27685;BME280;46113;50.130;8.526;2023-02-18T03:09:44;99685.78;;;6.51;87.57
27685;BME280;46113;50.130;8.526;2023-02-18T03:18:17;99686.13;;;6.15;89.00
27685;BME280;46113;50.130;8.526;2023-02-18T03:20:58;99686.97;;;6.68;86.55
27685;BME280;46113;50.130;8.526;2023-02-18T03:23:32;99685.16;;;6.17;87.88
27685;BME280;46113;50.130;8.526;2023-02-18T03:26:01;99689.88;;;6.34;87.82
27685;BME280;46113;50.130;8.526;2023-02-18T03:28:30;99688.72;;;6.42;87.90
27685;BME280;46113;50.130;8.526;2023-02-18T03:31:05;99689.97;;;6.04;89.16
27685;BME280;46113;50.130;8.526;2023-02-18T03:33:36;99685.16;;;6.44;87.76
27685;BME280;46113;50.130;8.526;2023-02-18T03:36:08;99688.84;;;6.38;87.50
27685;BME280;46113;50.130;8.526;2023-02-18T03:38:50;99684.03;;;6.24;88.82
27685;BME280;46113;50.130;8.526;2023-02-18T03:41:19;99686.78;;;6.21;87.26
27685;BME280;46113;50.130;8.526;2023-02-18T03:43:53;99681.38;;;6.53;86.87
27685;BME280;46113;50.130;8.526;2023-02-18T03:46:29;99682.78;;;6.36;86.26
27685;BME280;46113;50.130;8.526;2023-02-18T03:48:57;99674.75;;;6.67;85.26
27685;BME280;46113;50.130;8.526;2023-02-18T03:51:24;99681.28;;;6.29;86.18
27685;BME280;46113;50.130;8.526;2023-02-18T03:53:51;99678.94;;;6.20;87.73
27685;BME280;46113;50.130;8.526;2023-02-18T03:56:17;99678.75;;;6.26;86.16
27685;BME280;46113;50.130;8.526;2023-02-18T03:58:44;99692.44;;;6.36;86.18
27685;BME280;46113;50.130;8.526;2023-02-18T04:01:11;99687.59;;;6.23;86.11
27685;BME280;46113;50.130;8.526;2023-02-18T04:03:38;99681.16;;;6.05;87.11
27685;BME280;46113;50.130;8.526;2023-02-18T04:06:05;99683.66;;;6.10;87.84
27685;BME280;46113;50.130;8.526;2023-02-18T04:08:32;99693.16;;;6.41;85.71
27685;BME280;46113;50.130;8.526;2023-02-18T04:10:58;99694.38;;;6.31;86.30
27685;BME280;46113;50.130;8.526;2023-02-18T04:13:27;99686.63;;;6.53;84.47
27685;BME280;46113;50.130;8.526;2023-02-18T04:15:53;99690.63;;;6.11;87.23
27685;BME280;46113;50.130;8.526;2023-02-18T04:18:20;99694.81;;;6.44;85.37
27685;BME280;46113;50.130;8.526;2023-02-18T04:20:47;99692.38;;;6.10;86.96
27685;BME280;46113;50.130;8.526;2023-02-18T04:23:15;99693.84;;;6.19;86.41
27685;BME280;46113;50.130;8.526;2023-02-18T04:25:42;99687.53;;;6.25;86.39
27685;BME280;46113;50.130;8.526;2023-02-18T04:28:09;99689.34;;;6.50;84.73
27685;BME280;46113;50.130;8.526;2023-02-18T04:30:38;99693.63;;;6.52;85.05
27685;BME280;46113;50.130;8.526;2023-02-18T04:33:05;99687.31;;;6.31;85.43
27685;BME280;46113;50.130;8.526;2023-02-18T04:35:32;99682.56;;;6.43;85.83
27685;BME280;46113;50.130;8.526;2023-02-18T04:37:58;99681.41;;;6.51;84.77
27685;BME280;46113;50.130;8.526;2023-02-18T04:40:25;99684.16;;;6.21;86.48
27685;BME280;46113;50.130;8.526;2023-02-18T04:42:58;99677.38;;;6.41;86.50
27685;BME280;46113;50.130;8.526;2023-02-18T04:45:25;99674.91;;;6.09;86.12
27685;BME280;46113;50.130;8.526;2023-02-18T04:47:53;99660.78;;;6.39;85.20
27685;BME280;46113;50.130;8.526;2023-02-18T04:50:20;99670.75;;;6.29;85.28
27685;BME280;46113;50.130;8.526;2023-02-18T04:52:47;99674.53;;;6.47;84.76
27685;BME280;46113;50.130;8.526;2023-02-18T04:55:13;99661.34;;;6.49;84.73
27685;BME280;46113;50.130;8.526;2023-02-18T04:57:40;99665.06;;;6.16;85.71
27685;BME280;46113;50.130;8.526;2023-02-18T05:00:09;99663.47;;;6.10;86.29
27685;BME280;46113;50.130;8.526;2023-02-18T05:02:36;99665.28;;;5.81;89.02
27685;BME280;46113;50.130;8.526;2023-02-18T05:05:03;99662.06;;;6.27;86.85
27685;BME280;46113;50.130;8.526;2023-02-18T05:07:29;99664.75;;;6.25;86.83
27685;BME280;46113;50.130;8.526;2023-02-18T05:09:56;99662.28;;;6.21;87.61
27685;BME280;46113;50.130;8.526;2023-02-18T05:12:22;99663.47;;;6.37;87.05
27685;BME280;46113;50.130;8.526;2023-02-18T05:14:49;99656.34;;;6.14;88.58
27685;BME280;46113;50.130;8.526;2023-02-18T05:17:15;99662.13;;;5.98;89.20
27685;BME280;46113;50.130;8.526;2023-02-18T05:19:42;99655.72;;;6.07;88.80
27685;BME280;46113;50.130;8.526;2023-02-18T05:22:09;99646.19;;;5.76;90.50
27685;BME280;46113;50.130;8.526;2023-02-18T05:24:35;99635.34;;;5.87;89.63
27685;BME280;46113;50.130;8.526;2023-02-18T05:27:02;99632.44;;;6.22;88.68
27685;BME280;46113;50.130;8.526;2023-02-18T05:29:28;99629.53;;;6.04;89.54
27685;BME280;46113;50.130;8.526;2023-02-18T05:31:55;99619.69;;;6.11;89.01
27685;BME280;46113;50.130;8.526;2023-02-18T05:34:22;99622.31;;;6.11;88.80
27685;BME280;46113;50.130;8.526;2023-02-18T05:36:48;99612.84;;;6.32;87.69
27685;BME280;46113;50.130;8.526;2023-02-18T05:39:15;99612.34;;;6.21;88.09
27685;BME280;46113;50.130;8.526;2023-02-18T05:41:42;99612.91;;;6.31;87.36
27685;BME280;46113;50.130;8.526;2023-02-18T05:44:08;99610.72;;;6.17;88.30
27685;BME280;46113;50.130;8.526;2023-02-18T05:46:53;99611.25;;;6.01;88.52
27685;BME280;46113;50.130;8.526;2023-02-18T05:49:20;99611.06;;;6.33;87.77
27685;BME280;46113;50.130;8.526;2023-02-18T05:51:47;99608.09;;;6.44;86.72
27685;BME280;46113;50.130;8.526;2023-02-18T05:54:13;99598.31;;;6.47;86.76
27685;BME280;46113;50.130;8.526;2023-02-18T05:56:40;99600.88;;;6.23;88.17
27685;BME280;46113;50.130;8.526;2023-02-18T05:59:06;99594.59;;;6.28;88.53
27685;BME280;46113;50.130;8.526;2023-02-18T06:01:33;99586.19;;;6.43;87.98
27685;BME280;46113;50.130;8.526;2023-02-18T06:04:00;99585.72;;;6.05;90.62
27685;BME280;46113;50.130;8.526;2023-02-18T06:06:26;99580.38;;;6.08;89.95
27685;BME280;46113;50.130;8.526;2023-02-18T06:08:53;99585.50;;;6.12;90.78
27685;BME280;46113;50.130;8.526;2023-02-18T06:11:20;99581.22;;;6.10;89.49
27685;BME280;46113;50.130;8.526;2023-02-18T06:13:46;99586.91;;;6.23;89.80
27685;BME280;46113;50.130;8.526;2023-02-18T06:16:13;99590.22;;;5.76;91.67
27685;BME280;46113;50.130;8.526;2023-02-18T06:18:40;99579.28;;;6.15;90.87
27685;BME280;46113;50.130;8.526;2023-02-18T06:21:06;99574.22;;;6.09;90.42
27685;BME280;46113;50.130;8.526;2023-02-18T06:23:33;99575.88;;;6.11;90.14
27685;BME280;46113;50.130;8.526;2023-02-18T06:26:00;99569.41;;;5.96;91.18
27685;BME280;46113;50.130;8.526;2023-02-18T06:28:26;99579.97;;;6.20;89.84
27685;BME280;46113;50.130;8.526;2023-02-18T06:30:53;99579.06;;;5.94;90.17
27685;BME280;46113;50.130;8.526;2023-02-18T06:33:19;99577.28;;;5.96;90.75
27685;BME280;46113;50.130;8.526;2023-02-18T06:35:58;99585.50;;;6.12;90.75
27685;BME280;46113;50.130;8.526;2023-02-18T06:38:26;99574.28;;;5.80;91.90
27685;BME280;46113;50.130;8.526;2023-02-18T06:40:53;99575.06;;;6.35;89.10
27685;BME280;46113;50.130;8.526;2023-02-18T06:43:20;99571.56;;;6.36;87.65
27685;BME280;46113;50.130;8.526;2023-02-18T06:45:46;99567.38;;;6.30;88.39
27685;BME280;46113;50.130;8.526;2023-02-18T06:48:13;99565.88;;;5.70;91.34
27685;BME280;46113;50.130;8.526;2023-02-18T06:50:40;99569.41;;;5.96;90.65
27685;BME280;46113;50.130;8.526;2023-02-18T06:53:08;99567.78;;;5.92;89.55
27685;BME280;46113;50.130;8.526;2023-02-18T06:55:35;99559.78;;;5.68;90.58
27685;BME280;46113;50.130;8.526;2023-02-18T06:58:02;99562.75;;;6.11;89.03
27685;BME280;46113;50.130;8.526;2023-02-18T07:00:29;99557.31;;;6.18;88.48
27685;BME280;46113;50.130;8.526;2023-02-18T07:02:55;99565.38;;;6.11;88.25
27685;BME280;46113;50.130;8.526;2023-02-18T07:05:22;99552.50;;;6.04;87.57
27685;BME280;46113;50.130;8.526;2023-02-18T07:07:48;99542.03;;;6.02;87.53
27685;BME280;46113;50.130;8.526;2023-02-18T07:10:15;99562.69;;;6.13;87.44
27685;BME280;46113;50.130;8.526;2023-02-18T07:12:42;99558.13;;;6.18;85.92
27685;BME280;46113;50.130;8.526;2023-02-18T07:15:09;99552.88;;;5.93;85.38
27685;BME280;46113;50.130;8.526;2023-02-18T07:17:35;99554.81;;;6.13;84.53
27685;BME280;46113;50.130;8.526;2023-02-18T07:20:03;99543.50;;;6.36;84.89
27685;BME280;46113;50.130;8.526;2023-02-18T07:22:30;99549.50;;;6.40;82.73
27685;BME280;46113;50.130;8.526;2023-02-18T07:24:56;99540.63;;;6.43;82.53
27685;BME280;46113;50.130;8.526;2023-02-18T07:27:23;99541.69;;;6.13;84.32
27685;BME280;46113;50.130;8.526;2023-02-18T07:29:50;99542.53;;;5.88;85.99
27685;BME280;46113;50.130;8.526;2023-02-18T07:32:18;99538.72;;;5.97;84.36
27685;BME280;46113;50.130;8.526;2023-02-18T07:34:45;99538.94;;;5.91;83.24
27685;BME280;46113;50.130;8.526;2023-02-18T07:37:11;99530.91;;;5.68;83.36
27685;BME280;46113;50.130;8.526;2023-02-18T07:39:39;99541.03;;;5.81;82.09
27685;BME280;46113;50.130;8.526;2023-02-18T07:42:06;99538.19;;;5.87;81.09
27685;BME280;46113;50.130;8.526;2023-02-18T07:44:34;99539.63;;;5.70;80.95
27685;BME280;46113;50.130;8.526;2023-02-18T07:47:01;99538.28;;;5.84;80.95
27685;BME280;46113;50.130;8.526;2023-02-18T07:49:28;99531.19;;;6.13;79.83
27685;BME280;46113;50.130;8.526;2023-02-18T07:51:55;99533.53;;;5.95;79.42
27685;BME280;46113;50.130;8.526;2023-02-18T07:54:21;99539.41;;;6.02;79.65
27685;BME280;46113;50.130;8.526;2023-02-18T07:56:48;99538.09;;;6.16;78.04
27685;BME280;46113;50.130;8.526;2023-02-18T07:59:15;99541.13;;;6.29;76.16
27685;BME280;46113;50.130;8.526;2023-02-18T08:01:43;99545.69;;;6.49;77.42
27685;BME280;46113;50.130;8.526;2023-02-18T08:04:11;99538.66;;;5.98;75.78
27685;BME280;46113;50.130;8.526;2023-02-18T08:06:48;99525.16;;;6.35;75.02
27685;BME280;46113;50.130;8.526;2023-02-18T08:09:16;99514.59;;;6.36;75.19
27685;BME280;46113;50.130;8.526;2023-02-18T08:11:43;99518.03;;;6.13;75.87
27685;BME280;46113;50.130;8.526;2023-02-18T08:14:10;99515.69;;;6.05;75.82
27685;BME280;46113;50.130;8.526;2023-02-18T08:16:37;99524.13;;;6.15;74.50
27685;BME280;46113;50.130;8.526;2023-02-18T08:19:03;99526.84;;;6.12;75.06
27685;BME280;46113;50.130;8.526;2023-02-18T08:21:30;99522.31;;;6.41;73.01
27685;BME280;46113;50.130;8.526;2023-02-18T08:23:58;99522.88;;;6.25;72.43
27685;BME280;46113;50.130;8.526;2023-02-18T08:26:25;99529.19;;;6.20;72.61
27685;BME280;46113;50.130;8.526;2023-02-18T08:28:52;99531.53;;;5.77;72.76
27685;BME280;46113;50.130;8.526;2023-02-18T08:31:24;99527.81;;;6.09;74.44
27685;BME280;46113;50.130;8.526;2023-02-18T08:33:53;99547.25;;;6.04;74.50
27685;BME280;46113;50.130;8.526;2023-02-18T08:36:20;99558.25;;;6.41;72.75
27685;BME280;46113;50.130;8.526;2023-02-18T08:38:47;99550.84;;;6.27;72.91
27685;BME280;46113;50.130;8.526;2023-02-18T08:41:15;99552.34;;;6.34;72.43
27685;BME280;46113;50.130;8.526;2023-02-18T08:43:45;99558.94;;;6.46;70.96
27685;BME280;46113;50.130;8.526;2023-02-18T08:46:12;99555.41;;;6.21;71.12
27685;BME280;46113;50.130;8.526;2023-02-18T08:48:52;99550.22;;;6.20;71.21
27685;BME280;46113;50.130;8.526;2023-02-18T08:51:21;99556.03;;;6.03;73.93
27685;BME280;46113;50.130;8.526;2023-02-18T08:53:51;99569.69;;;6.39;71.91
27685;BME280;46113;50.130;8.526;2023-02-18T08:56:17;99549.25;;;6.22;69.08
27685;BME280;46113;50.130;8.526;2023-02-18T08:58:44;99547.25;;;6.04;67.19
27685;BME280;46113;50.130;8.526;2023-02-18T09:01:12;99553.41;;;6.54;67.74
27685;BME280;46113;50.130;8.526;2023-02-18T09:03:39;99547.56;;;6.69;65.29
27685;BME280;46113;50.130;8.526;2023-02-18T09:06:06;99544.66;;;6.77;66.99
27685;BME280;46113;50.130;8.526;2023-02-18T09:08:33;99545.09;;;6.41;67.57
27685;BME280;46113;50.130;8.526;2023-02-18T09:11:02;99532.84;;;6.41;67.47
27685;BME280;46113;50.130;8.526;2023-02-18T09:13:31;99534.88;;;6.81;66.66
27685;BME280;46113;50.130;8.526;2023-02-18T09:16:04;99558.84;;;6.23;65.97
27685;BME280;46113;50.130;8.526;2023-02-18T09:18:32;99538.59;;;6.99;65.55
27685;BME280;46113;50.130;8.526;2023-02-18T09:21:03;99534.75;;;6.60;64.95
27685;BME280;46113;50.130;8.526;2023-02-18T09:23:31;99546.63;;;6.48;66.01
27685;BME280;46113;50.130;8.526;2023-02-18T09:25:58;99550.63;;;6.58;65.84
27685;BME280;46113;50.130;8.526;2023-02-18T09:28:25;99544.94;;;6.69;66.23
27685;BME280;46113;50.130;8.526;2023-02-18T09:30:52;99524.25;;;6.60;65.74
27685;BME280;46113;50.130;8.526;2023-02-18T09:33:19;99522.66;;;6.79;65.77
27685;BME280;46113;50.130;8.526;2023-02-18T09:35:48;99519.91;;;7.07;67.19
27685;BME280;46113;50.130;8.526;2023-02-18T09:38:16;99496.84;;;6.67;65.14
27685;BME280;46113;50.130;8.526;2023-02-18T09:40:48;99507.78;;;6.78;62.08
27685;BME280;46113;50.130;8.526;2023-02-18T09:43:39;99512.25;;;6.76;63.19
27685;BME280;46113;50.130;8.526;2023-02-18T09:46:17;99518.44;;;7.22;62.71
27685;BME280;46113;50.130;8.526;2023-02-18T09:48:45;99511.44;;;6.98;62.61
27685;BME280;46113;50.130;8.526;2023-02-18T09:51:14;99528.25;;;6.94;63.30
27685;BME280;46113;50.130;8.526;2023-02-18T09:53:43;99523.66;;;7.23;60.67
27685;BME280;46113;50.130;8.526;2023-02-18T09:56:21;99525.81;;;6.89;62.21
27685;BME280;46113;50.130;8.526;2023-02-18T09:58:48;99532.69;;;6.44;62.82
27685;BME280;46113;50.130;8.526;2023-02-18T10:01:32;99524.09;;;6.64;62.66
27685;BME280;46113;50.130;8.526;2023-02-18T10:04:06;99514.50;;;6.63;63.10
27685;BME280;46113;50.130;8.526;2023-02-18T10:06:35;99527.34;;;6.47;63.48
27685;BME280;46113;50.130;8.526;2023-02-18T10:09:34;99517.84;;;6.43;62.56
27685;BME280;46113;50.130;8.526;2023-02-18T10:12:15;99526.88;;;6.36;64.39
27685;BME280;46113;50.130;8.526;2023-02-18T10:14:44;99519.84;;;6.36;64.43
27685;BME280;46113;50.130;8.526;2023-02-18T10:17:14;99521.50;;;6.39;63.85
27685;BME280;46113;50.130;8.526;2023-02-18T10:19:44;99519.56;;;6.68;62.75
27685;BME280;46113;50.130;8.526;2023-02-18T10:22:13;99526.84;;;7.09;62.21
27685;BME280;46113;50.130;8.526;2023-02-18T10:24:51;99509.78;;;6.96;61.80
27685;BME280;46113;50.130;8.526;2023-02-18T10:27:31;99512.66;;;6.89;64.63
27685;BME280;46113;50.130;8.526;2023-02-18T10:32:54;99512.56;;;7.15;62.01
27685;BME280;46113;50.130;8.526;2023-02-18T10:38:15;99507.47;;;6.64;63.83
27685;BME280;46113;50.130;8.526;2023-02-18T10:43:23;99505.78;;;6.37;62.66
27685;BME280;46113;50.130;8.526;2023-02-18T10:48:41;99494.91;;;6.95;62.28
27685;BME280;46113;50.130;8.526;2023-02-18T10:51:19;99501.25;;;6.89;63.09
27685;BME280;46113;50.130;8.526;2023-02-18T10:53:48;99494.94;;;6.23;65.26
27685;BME280;46113;50.130;8.526;2023-02-18T10:56:39;99492.72;;;6.36;62.91
27685;BME280;46113;50.130;8.526;2023-02-18T10:59:11;99490.56;;;6.71;62.64
27685;BME280;46113;50.130;8.526;2023-02-18T11:01:40;99498.34;;;6.73;63.99
27685;BME280;46113;50.130;8.526;2023-02-18T11:04:38;99473.81;;;6.74;62.01
27685;BME280;46113;50.130;8.526;2023-02-18T11:07:11;99489.34;;;6.80;63.02
27685;BME280;46113;50.130;8.526;2023-02-18T11:09:59;99481.69;;;6.74;61.13
27685;BME280;46113;50.130;8.526;2023-02-18T11:12:49;99488.94;;;6.67;63.36
27685;BME280;46113;50.130;8.526;2023-02-18T11:15:20;99477.66;;;6.87;62.83
27685;BME280;46113;50.130;8.526;2023-02-18T11:17:51;99479.66;;;6.58;62.09
27685;BME280;46113;50.130;8.526;2023-02-18T11:20:29;99479.28;;;7.14;61.95
27685;BME280;46113;50.130;8.526;2023-02-18T11:25:34;99485.78;;;6.57;62.03
27685;BME280;46113;50.130;8.526;2023-02-18T11:28:04;99478.56;;;7.10;61.43
27685;BME280;46113;50.130;8.526;2023-02-18T11:30:37;99474.59;;;6.98;62.69
27685;BME280;46113;50.130;8.526;2023-02-18T11:33:15;99467.38;;;6.57;61.76
27685;BME280;46113;50.130;8.526;2023-02-18T11:35:52;99469.28;;;6.77;61.96
27685;BME280;46113;50.130;8.526;2023-02-18T11:38:44;99471.38;;;6.68;63.55
27685;BME280;46113;50.130;8.526;2023-02-18T11:45:33;99459.03;;;6.94;62.53
27685;BME280;46113;50.130;8.526;2023-02-18T11:48:18;99451.09;;;6.71;62.49
27685;BME280;46113;50.130;8.526;2023-02-18T11:50:52;99460.97;;;6.88;61.89
27685;BME280;46113;50.130;8.526;2023-02-18T11:53:34;99453.06;;;6.18;63.04
27685;BME280;46113;50.130;8.526;2023-02-18T11:56:17;99455.16;;;6.80;62.35
27685;BME280;46113;50.130;8.526;2023-02-18T11:58:47;99435.34;;;6.47;62.34
27685;BME280;46113;50.130;8.526;2023-02-18T12:01:27;99447.81;;;6.42;62.39
27685;BME280;46113;50.130;8.526;2023-02-18T12:04:07;99447.88;;;6.87;60.87
27685;BME280;46113;50.130;8.526;2023-02-18T12:06:38;99437.69;;;6.31;62.70
27685;BME280;46113;50.130;8.526;2023-02-18T12:11:47;99428.59;;;6.86;60.61
27685;BME280;46113;50.130;8.526;2023-02-18T12:14:20;99420.34;;;6.96;62.81
27685;BME280;46113;50.130;8.526;2023-02-18T12:34:34;99421.38;;;7.36;59.42
27685;BME280;46113;50.130;8.526;2023-02-18T12:37:23;99427.91;;;7.48;59.95
27685;BME280;46113;50.130;8.526;2023-02-18T12:42:58;99421.28;;;6.95;62.03
27685;BME280;46113;50.130;8.526;2023-02-18T12:45:48;99426.16;;;6.82;60.70
27685;BME280;46113;50.130;8.526;2023-02-18T13:13:30;99415.25;;;6.22;69.08
27685;BME280;46113;50.130;8.526;2023-02-18T13:16:01;99418.22;;;6.37;67.83
27685;BME280;46113;50.130;8.526;2023-02-18T13:18:33;99427.75;;;6.63;67.13
27685;BME280;46113;50.130;8.526;2023-02-18T13:21:07;99417.47;;;6.79;65.48
27685;BME280;46113;50.130;8.526;2023-02-18T13:23:41;99416.00;;;6.72;66.05
27685;BME280;46113;50.130;8.526;2023-02-18T13:26:11;99429.50;;;6.63;66.34
27685;BME280;46113;50.130;8.526;2023-02-18T13:28:43;99410.59;;;6.31;65.98
27685;BME280;46113;50.130;8.526;2023-02-18T13:31:52;99421.88;;;6.79;63.79
27685;BME280;46113;50.130;8.526;2023-02-18T13:34:31;99413.84;;;6.82;64.77
27685;BME280;46113;50.130;8.526;2023-02-18T13:37:04;99414.47;;;6.89;64.32
27685;BME280;46113;50.130;8.526;2023-02-18T13:39:34;99401.56;;;6.60;65.04
27685;BME280;46113;50.130;8.526;2023-02-18T13:47:41;99403.22;;;6.63;64.82
27685;BME280;46113;50.130;8.526;2023-02-18T13:55:49;99412.63;;;6.46;65.62
27685;BME280;46113;50.130;8.526;2023-02-18T13:58:29;99423.84;;;6.96;65.29
27685;BME280;46113;50.130;8.526;2023-02-18T14:14:59;99405.78;;;6.64;67.29
27685;BME280;46113;50.130;8.526;2023-02-18T14:17:37;99404.94;;;6.64;67.71
27685;BME280;46113;50.130;8.526;2023-02-18T14:25:16;99415.75;;;6.32;67.78
27685;BME280;46113;50.130;8.526;2023-02-18T14:27:51;99413.16;;;6.55;67.77
27685;BME280;46113;50.130;8.526;2023-02-18T14:30:25;99415.28;;;6.69;67.39
27685;BME280;46113;50.130;8.526;2023-02-18T14:32:59;99413.63;;;6.66;67.40
27685;BME280;46113;50.130;8.526;2023-02-18T14:38:07;99423.91;;;6.48;66.55
27685;BME280;46113;50.130;8.526;2023-02-18T14:43:12;99414.00;;;6.79;68.51
27685;BME280;46113;50.130;8.526;2023-02-18T14:46:17;99421.31;;;6.93;66.09
27685;BME280;46113;50.130;8.526;2023-02-18T14:51:23;99428.59;;;6.86;66.88
27685;BME280;46113;50.130;8.526;2023-02-18T14:53:51;99424.94;;;6.44;67.08
27685;BME280;46113;50.130;8.526;2023-02-18T14:56:20;99430.31;;;6.87;67.18
27685;BME280;46113;50.130;8.526;2023-02-18T14:58:50;99427.16;;;6.79;66.73
27685;BME280;46113;50.130;8.526;2023-02-18T15:01:27;99437.97;;;6.47;68.06
27685;BME280;46113;50.130;8.526;2023-02-18T15:03:54;99438.25;;;6.86;67.27
27685;BME280;46113;50.130;8.526;2023-02-18T15:08:48;99435.50;;;6.20;69.19
27685;BME280;46113;50.130;8.526;2023-02-18T15:11:16;99435.38;;;6.70;67.96
27685;BME280;46113;50.130;8.526;2023-02-18T15:13:44;99424.50;;;6.33;69.36
27685;BME280;46113;50.130;8.526;2023-02-18T15:16:18;99440.66;;;6.70;68.45
27685;BME280;46113;50.130;8.526;2023-02-18T15:18:58;99430.78;;;6.52;68.71
27685;BME280;46113;50.130;8.526;2023-02-18T15:21:29;99440.84;;;6.41;69.85
27685;BME280;46113;50.130;8.526;2023-02-18T15:24:05;99434.00;;;6.37;69.50
27685;BME280;46113;50.130;8.526;2023-02-18T15:26:32;99433.66;;;5.97;71.33
27685;BME280;46113;50.130;8.526;2023-02-18T15:29:00;99433.88;;;6.16;71.63
27685;BME280;46113;50.130;8.526;2023-02-18T15:31:30;99444.91;;;6.26;70.93
27685;BME280;46113;50.130;8.526;2023-02-18T15:33:57;99440.41;;;6.52;70.34
27685;BME280;46113;50.130;8.526;2023-02-18T15:36:25;99441.47;;;6.70;70.17
27685;BME280;46113;50.130;8.526;2023-02-18T15:38:52;99438.25;;;6.63;69.62
27685;BME280;46113;50.130;8.526;2023-02-18T15:41:20;99441.28;;;6.29;71.21
27685;BME280;46113;50.130;8.526;2023-02-18T15:44:03;99436.72;;;6.58;70.81
27685;BME280;46113;50.130;8.526;2023-02-18T15:46:31;99428.56;;;6.42;71.29
27685;BME280;46113;50.130;8.526;2023-02-18T15:48:59;99433.41;;;6.52;70.58
27685;BME280;46113;50.130;8.526;2023-02-18T15:51:28;99432.84;;;6.44;71.22